createdAt,value
2022-10-05T00:00:59.934Z,65.35
2022-10-05T00:06:02.076Z,65.69
2022-10-05T00:11:07.924Z,66.03
2022-10-05T00:16:19.983Z,65.74
2022-10-05T00:21:33.367Z,65.20
2022-10-05T00:26:35.460Z,65.02
2022-10-05T00:31:37.630Z,64.93
2022-10-05T00:36:40.465Z,65.29
2022-10-05T00:41:42.468Z,65.35
2022-10-05T00:46:47.626Z,65.47
2022-10-05T00:52:04.844Z,65.55
2022-10-05T00:57:21.579Z,65.63
2022-10-05T01:02:45.179Z,65.71
2022-10-05T01:08:02.423Z,65.88
2022-10-05T01:13:23.200Z,65.73
2022-10-05T01:18:40.674Z,65.77
2022-10-05T01:24:07.602Z,65.78
2022-10-05T01:29:21.415Z,65.53
2022-10-05T01:34:34.265Z,66.88
2022-10-05T01:39:53.735Z,67.46
2022-10-05T01:45:06.038Z,68.05
2022-10-05T01:50:11.756Z,67.81
2022-10-05T01:55:38.414Z,68.63
2022-10-05T02:00:52.929Z,68.75
2022-10-05T02:06:23.226Z,68.46
2022-10-05T02:11:26.314Z,69.47
2022-10-05T02:16:28.516Z,68.75
2022-10-05T02:21:34.566Z,69.11
2022-10-05T02:26:39.998Z,70.05
2022-10-05T02:32:12.863Z,69.83
2022-10-05T02:37:39.953Z,70.61
2022-10-05T02:42:55.018Z,70.66
2022-10-05T02:48:11.885Z,70.60
2022-10-05T02:53:26.731Z,70.42
2022-10-05T02:58:35.014Z,70.71
2022-10-05T03:03:47.487Z,71.92
2022-10-05T03:09:05.343Z,71.63
2022-10-05T03:14:22.454Z,72.19
2022-10-05T03:19:52.865Z,72.76
2022-10-05T03:25:17.073Z,71.76
2022-10-05T03:30:22.938Z,72.38
2022-10-05T03:35:33.043Z,71.83
2022-10-05T03:40:48.597Z,71.87
2022-10-05T03:46:03.046Z,72.28
2022-10-05T03:51:13.203Z,71.83
2022-10-05T03:56:33.618Z,71.79
2022-10-05T04:01:48.595Z,70.62
2022-10-05T04:06:53.502Z,71.26
2022-10-05T04:12:25.903Z,71.89
2022-10-05T04:17:35.817Z,71.99
2022-10-05T04:22:44.274Z,71.88
2022-10-05T04:28:11.656Z,70.81
2022-10-05T04:33:16.027Z,71.31
2022-10-05T04:38:48.297Z,70.85
2022-10-05T04:44:02.047Z,70.40
2022-10-05T04:49:32.208Z,70.85
2022-10-05T04:54:46.464Z,69.26
2022-10-05T04:59:54.749Z,68.96
2022-10-05T05:05:08.333Z,69.48
2022-10-05T05:10:21.499Z,68.95
2022-10-05T05:15:39.647Z,69.12
2022-10-05T05:20:57.433Z,69.09
2022-10-05T05:26:29.038Z,68.56
2022-10-05T05:31:45.793Z,69.03
2022-10-05T05:37:24.498Z,68.71
2022-10-05T05:42:47.352Z,68.04
2022-10-05T05:47:54.095Z,67.29
2022-10-05T05:53:09.828Z,67.35
2022-10-05T05:58:18.095Z,68.05
2022-10-05T06:03:29.032Z,67.23
2022-10-05T06:08:44.640Z,67.23
2022-10-05T06:14:00.759Z,66.80
2022-10-05T06:19:10.492Z,67.08
2022-10-05T06:24:37.589Z,66.09
2022-10-05T06:29:54.674Z,65.98
2022-10-05T06:35:04.456Z,65.64
2022-10-05T06:40:23.387Z,66.34
2022-10-05T06:45:41.797Z,67.34
2022-10-05T06:51:09.981Z,66.98
2022-10-05T06:56:48.856Z,66.58
2022-10-05T07:02:03.477Z,66.71
2022-10-05T07:07:34.942Z,66.68
2022-10-05T07:12:55.479Z,66.74
2022-10-05T07:18:22.559Z,65.77
2022-10-05T07:23:51.052Z,64.84
2022-10-05T07:29:15.227Z,64.67
2022-10-05T07:34:22.944Z,58.89
2022-10-05T07:39:59.204Z,57.99
2022-10-05T07:45:14.945Z,55.50
2022-10-05T07:50:25.900Z,51.11
2022-10-05T07:55:37.079Z,51.47
2022-10-05T08:00:49.204Z,52.58
2022-10-05T08:05:52.020Z,52.34
2022-10-05T08:11:22.028Z,54.81
2022-10-05T08:16:31.247Z,55.34
2022-10-05T08:21:41.514Z,56.54
2022-10-05T08:27:04.339Z,56.30
2022-10-05T08:32:35.687Z,55.00
2022-10-05T08:37:41.686Z,52.53
2022-10-05T08:43:17.575Z,53.47
2022-10-05T08:48:34.572Z,53.47
2022-10-05T08:54:16.694Z,54.70
2022-10-05T08:59:45.039Z,55.83
2022-10-05T09:05:01.087Z,56.47
2022-10-05T09:10:37.411Z,57.78
2022-10-05T09:15:42.546Z,60.19
2022-10-05T09:21:13.096Z,60.18
2022-10-05T09:26:44.195Z,61.16
2022-10-05T09:31:49.008Z,62.11
2022-10-05T09:37:14.194Z,60.95
2022-10-05T09:42:49.726Z,55.02
2022-10-05T09:48:23.854Z,44.76
2022-10-05T09:53:41.112Z,43.73
2022-10-05T09:59:21.799Z,46.13
2022-10-05T10:04:40.207Z,49.22
2022-10-05T10:09:48.251Z,51.73
2022-10-05T10:15:24.544Z,52.21
2022-10-05T10:20:38.045Z,48.69
2022-10-05T10:25:43.114Z,46.97
2022-10-05T10:31:00.388Z,43.44
2022-10-05T10:36:18.430Z,38.72
2022-10-05T10:41:39.186Z,37.52
2022-10-05T10:47:19.798Z,39.78
2022-10-05T10:52:40.443Z,37.47
2022-10-05T10:58:09.364Z,39.42
2022-10-05T11:03:33.180Z,43.15
2022-10-05T11:09:23.605Z,41.04
2022-10-05T11:15:07.100Z,39.81
2022-10-05T11:20:58.075Z,40.61
2022-10-05T11:26:27.550Z,40.10
2022-10-05T11:31:39.420Z,36.85
2022-10-05T11:37:05.787Z,36.35
2022-10-05T11:42:29.324Z,38.27
2022-10-05T11:48:04.467Z,40.11
2022-10-05T11:53:24.503Z,42.55
2022-10-05T11:58:33.377Z,44.87
2022-10-05T12:03:41.175Z,47.15
2022-10-05T12:09:03.883Z,49.55
2022-10-05T12:14:16.673Z,53.74
2022-10-05T12:19:29.905Z,53.88
2022-10-05T12:25:06.655Z,52.21
2022-10-05T12:30:15.060Z,54.24
2022-10-05T12:35:47.995Z,54.58
2022-10-05T12:41:00.274Z,55.71
2022-10-05T12:46:17.889Z,54.61
2022-10-05T12:51:35.530Z,53.92
2022-10-05T12:56:50.775Z,49.92
2022-10-05T13:02:05.817Z,47.15
2022-10-05T13:07:17.733Z,45.74
2022-10-05T13:12:36.297Z,48.23
2022-10-05T13:17:49.406Z,49.87
2022-10-05T13:23:02.721Z,51.74
2022-10-05T13:28:19.453Z,52.47
2022-10-05T13:33:53.443Z,52.94
2022-10-05T13:39:00.043Z,49.95
2022-10-05T13:44:09.251Z,49.72
2022-10-05T13:55:41.301Z,51.14
2022-10-05T14:01:08.975Z,53.14
2022-10-05T14:06:13.943Z,54.16
2022-10-05T14:11:31.713Z,54.25
2022-10-05T14:16:35.752Z,55.36
2022-10-05T14:21:52.533Z,54.98
2022-10-05T14:26:57.368Z,56.01
2022-10-05T14:32:02.635Z,56.15
2022-10-05T14:37:19.060Z,56.44
2022-10-05T14:42:28.836Z,56.20
2022-10-05T14:47:32.320Z,57.54
2022-10-05T14:52:35.857Z,58.23
2022-10-05T14:57:48.148Z,57.80
2022-10-05T15:02:50.213Z,55.84
2022-10-05T15:07:59.089Z,58.46
2022-10-05T15:13:17.757Z,58.55
2022-10-05T15:18:23.050Z,58.17
2022-10-05T15:23:42.882Z,58.99
2022-10-05T15:29:09.805Z,59.02
2022-10-05T15:34:27.629Z,58.76
2022-10-05T15:39:39.431Z,59.63
2022-10-05T15:44:59.184Z,59.26
2022-10-05T15:50:15.835Z,60.04
2022-10-05T15:55:27.908Z,61.42
2022-10-05T16:00:33.771Z,57.89
2022-10-05T16:05:57.337Z,61.09
2022-10-05T16:11:00.091Z,60.56
2022-10-05T16:16:16.241Z,60.97
2022-10-05T16:21:27.443Z,60.77
2022-10-05T16:26:44.743Z,60.46
2022-10-05T16:32:08.511Z,60.75
2022-10-05T16:37:26.029Z,60.66
2022-10-05T16:42:28.303Z,60.84
2022-10-05T16:48:01.110Z,60.58
2022-10-05T16:53:14.629Z,60.47
2022-10-05T16:58:37.817Z,60.35
2022-10-05T17:03:57.252Z,60.74
2022-10-05T17:09:05.371Z,61.22
2022-10-05T17:14:37.965Z,61.09
2022-10-05T17:19:47.055Z,61.25
2022-10-05T17:25:11.216Z,61.59
2022-10-05T17:30:38.988Z,60.83
2022-10-05T17:35:53.682Z,61.87
2022-10-05T17:41:19.681Z,62.56
2022-10-05T17:46:46.039Z,61.22
2022-10-05T17:52:21.105Z,61.43
2022-10-05T17:57:27.895Z,62.12
2022-10-05T18:02:36.619Z,62.40
2022-10-05T18:07:41.034Z,62.90
2022-10-05T18:13:11.483Z,63.33
2022-10-05T18:18:32.840Z,63.22
2022-10-05T18:23:37.129Z,63.89
2022-10-05T18:28:47.265Z,64.17
2022-10-05T18:33:56.910Z,64.76
2022-10-05T18:39:06.796Z,64.42
2022-10-05T18:44:47.604Z,64.68
2022-10-05T18:50:02.279Z,65.37
2022-10-05T18:55:22.618Z,65.16
2022-10-05T19:00:25.948Z,65.18
2022-10-05T19:06:08.308Z,65.52
2022-10-05T19:11:38.690Z,64.72
2022-10-05T19:17:05.934Z,65.17
2022-10-05T19:22:08.222Z,64.83
2022-10-05T19:27:38.077Z,64.29
2022-10-05T19:32:50.224Z,64.59
2022-10-05T19:38:02.678Z,64.55
2022-10-05T19:43:14.360Z,63.89
2022-10-05T19:48:28.510Z,64.21
2022-10-05T19:53:38.404Z,63.53
2022-10-05T19:58:40.473Z,63.30
2022-10-05T20:03:47.923Z,63.45
2022-10-05T20:08:52.613Z,63.82
2022-10-05T20:13:57.375Z,63.75
2022-10-05T20:19:18.206Z,63.84
2022-10-05T20:24:28.764Z,63.90
2022-10-05T20:29:40.553Z,64.60
2022-10-05T20:34:44.762Z,64.76
2022-10-05T20:39:48.063Z,64.67
2022-10-05T20:44:55.796Z,65.22
2022-10-05T20:49:58.912Z,65.16
2022-10-05T20:55:01.859Z,65.42
2022-10-05T21:00:06.379Z,66.67
2022-10-05T21:05:09.187Z,66.92
2022-10-05T21:10:11.683Z,67.25
2022-10-05T21:15:14.115Z,67.63
2022-10-05T21:34:05.632Z,67.48
2022-10-05T21:39:16.745Z,65.72
2022-10-05T21:44:19.054Z,67.88
2022-10-05T21:49:21.715Z,68.25
2022-10-05T21:54:24.411Z,68.04
2022-10-05T21:59:29.634Z,68.19
2022-10-05T22:04:31.787Z,67.75
2022-10-05T22:09:33.855Z,67.87
2022-10-05T22:14:35.944Z,68.17
2022-10-05T22:19:37.863Z,65.79
2022-10-05T22:24:40.017Z,67.69
2022-10-05T22:29:42.308Z,68.11
2022-10-05T22:34:44.399Z,68.37
2022-10-05T22:39:46.554Z,68.47
2022-10-05T22:44:48.606Z,68.66
2022-10-05T22:49:50.519Z,65.85
2022-10-05T22:54:52.582Z,67.89
2022-10-05T22:59:54.512Z,65.76
2022-10-05T23:04:56.572Z,67.70
2022-10-05T23:09:59.199Z,65.92
2022-10-05T23:15:02.033Z,67.45
2022-10-05T23:20:08.608Z,67.99
2022-10-05T23:25:10.750Z,68.00
2022-10-05T23:30:13.739Z,68.09
2022-10-05T23:35:15.932Z,67.51
2022-10-05T23:40:18.275Z,67.71
2022-10-05T23:45:20.338Z,67.78
2022-10-05T23:50:25.003Z,65.30
2022-10-05T23:55:27.063Z,67.49
